Time;durP1;ratioP1;P1;durP2;ratioP2;P2;SDS_P1;SDS_P2;PMS_P1;PMS_P2;Temp;Humidity;BMP_temperature;BMP_pressure;BME280_temperature;BME280_humidity;BME280_pressure;Samples;Min_cycle;Max_cycle;Signal;HPM_P1;HPM_P2
2023/09/21 00:01:33;;;;;;;6.40;3.70;;;;;;;;;;4925562;29;20059;-95
2023/09/21 00:04:01;;;;;;;26.73;4.18;;;;;;;;;;4947319;29;20032;-96
2023/09/21 00:06:27;;;;;;;7.13;3.42;;;;;;;;;;4949226;29;20023;-96
2023/09/21 00:08:53;;;;;;;5.82;3.65;;;;;;;;;;4932572;29;20031;-96
2023/09/21 00:11:20;;;;;;;7.05;3.53;;;;;;;;;;4931275;29;20024;-96
2023/09/21 00:13:46;;;;;;;6.50;3.40;;;;;;;;;;4949990;29;20027;-96
2023/09/21 00:16:14;;;;;;;8.13;2.90;;;;;;;;;;4949629;29;20060;-96
2023/09/21 00:18:42;;;;;;;9.80;4.40;;;;;;;;;;4932232;29;20042;-96
2023/09/21 00:21:08;;;;;;;8.63;3.10;;;;;;;;;;4930858;29;20039;-96
2023/09/21 00:23:36;;;;;;;45.20;5.40;;;;;;;;;;4945643;29;20107;-95
2023/09/21 00:26:03;;;;;;;5.68;2.97;;;;;;;;;;4943500;29;20338;-95
2023/09/21 00:28:29;;;;;;;8.32;3.30;;;;;;;;;;4942968;29;20039;-95
2023/09/21 00:30:57;;;;;;;5.05;3.28;;;;;;;;;;4942495;29;20470;-96
2023/09/21 00:33:27;;;;;;;4.03;2.85;;;;;;;;;;4926489;29;20036;-96
2023/09/21 00:35:54;;;;;;;7.68;3.33;;;;;;;;;;4911347;29;20024;-94
2023/09/21 00:38:20;;;;;;;7.47;3.63;;;;;;;;;;4907042;29;20326;-95
2023/09/21 00:40:48;;;;;;;5.32;3.20;;;;;;;;;;4922632;29;20076;-95
2023/09/21 00:43:21;;;;;;;7.15;2.70;;;;;;;;;;4922284;29;20032;-95
2023/09/21 00:45:53;;;;;;;29.55;3.75;;;;;;;;;;4905673;29;20034;-95
2023/09/21 00:48:25;;;;;;;5.38;2.75;;;;;;;;;;4922182;29;20059;-95
2023/09/21 00:50:53;;;;;;;6.05;2.90;;;;;;;;;;4921993;29;20039;-94
2023/09/21 00:53:19;;;;;;;5.60;3.40;;;;;;;;;;4922284;29;20024;-93
2023/09/21 00:55:47;;;;;;;6.20;3.15;;;;;;;;;;4921723;29;20039;-95
2023/09/21 00:58:13;;;;;;;6.00;3.45;;;;;;;;;;4905496;29;20318;-95
2023/09/21 01:00:41;;;;;;;5.25;3.13;;;;;;;;;;4905578;29;20032;-95
2023/09/21 01:03:14;;;;;;;14.75;3.75;;;;;;;;;;4905518;29;20457;-95
2023/09/21 01:05:41;;;;;;;6.22;3.63;;;;;;;;;;4922245;29;20028;-94
2023/09/21 01:08:11;;;;;;;5.72;3.92;;;;;;;;;;4904927;29;20068;-94
2023/09/21 01:10:45;;;;;;;5.50;3.53;;;;;;;;;;4921755;29;20032;-94
2023/09/21 01:13:12;;;;;;;8.35;4.05;;;;;;;;;;4922063;29;20035;-94
2023/09/21 01:15:44;;;;;;;7.68;4.00;;;;;;;;;;4922116;29;20103;-94
2023/09/21 01:18:11;;;;;;;7.07;4.07;;;;;;;;;;4921937;29;20115;-95
2023/09/21 01:20:37;;;;;;;9.98;3.95;;;;;;;;;;4921810;29;20437;-94
2023/09/21 01:23:08;;;;;;;6.97;3.90;;;;;;;;;;4922500;29;20028;-95
2023/09/21 01:25:38;;;;;;;7.13;3.72;;;;;;;;;;4921476;29;20035;-95
2023/09/21 01:28:05;;;;;;;8.10;3.35;;;;;;;;;;4905028;29;20040;-94
2023/09/21 01:30:31;;;;;;;12.13;3.78;;;;;;;;;;4921534;29;20067;-95
2023/09/21 01:32:57;;;;;;;10.27;3.50;;;;;;;;;;4921380;29;20032;-93
2023/09/21 01:35:23;;;;;;;5.55;3.00;;;;;;;;;;4932431;29;20031;-94
2023/09/21 01:37:49;;;;;;;9.40;3.92;;;;;;;;;;4940429;29;20051;-93
2023/09/21 01:40:16;;;;;;;7.68;3.47;;;;;;;;;;4940293;29;20099;-95
2023/09/21 01:42:48;;;;;;;7.45;3.42;;;;;;;;;;4923710;29;20028;-96
2023/09/21 01:45:15;;;;;;;4.63;3.35;;;;;;;;;;4940793;29;20035;-94
2023/09/21 01:47:41;;;;;;;6.90;3.05;;;;;;;;;;4940267;29;20028;-95
2023/09/21 01:50:10;;;;;;;5.13;3.05;;;;;;;;;;4923474;29;20076;-93
2023/09/21 01:59:10;;;;;;;12.80;3.33;;;;;;;;;;4940558;29;20325;-95
2023/09/21 02:01:36;;;;;;;7.85;3.33;;;;;;;;;;4923212;29;20157;-95
2023/09/21 02:04:02;;;;;;;7.47;3.40;;;;;;;;;;4923360;29;20039;-95
2023/09/21 02:06:28;;;;;;;8.07;3.20;;;;;;;;;;4942134;29;20172;-95
2023/09/21 02:08:54;;;;;;;9.18;3.28;;;;;;;;;;4944392;29;20027;-93
2023/09/21 02:11:20;;;;;;;6.82;3.00;;;;;;;;;;4944302;29;20071;-93
2023/09/21 02:13:46;;;;;;;5.90;3.67;;;;;;;;;;4944097;29;20028;-96
2023/09/21 02:16:14;;;;;;;8.85;3.38;;;;;;;;;;4931832;29;20024;-95
2023/09/21 02:18:40;;;;;;;7.03;2.88;;;;;;;;;;4949639;29;20031;-94
2023/09/21 02:21:09;;;;;;;5.00;3.00;;;;;;;;;;4932890;29;20127;-96
2023/09/21 02:23:37;;;;;;;6.47;2.95;;;;;;;;;;5241521;23;20184;-96
2023/09/21 02:26:04;;;;;;;8.68;3.33;;;;;;;;;;4960073;29;20358;-96
2023/09/21 02:28:31;;;;;;;4.90;2.80;;;;;;;;;;4976509;29;20055;-96
2023/09/21 02:30:58;;;;;;;10.18;3.47;;;;;;;;;;4975890;29;20087;-96
2023/09/21 02:33:25;;;;;;;5.57;2.80;;;;;;;;;;4974766;29;20051;-96
2023/09/21 02:35:52;;;;;;;9.85;3.50;;;;;;;;;;4990258;28;20023;-96
2023/09/21 02:38:22;;;;;;;5.32;3.63;;;;;;;;;;4978673;28;20034;-96
2023/09/21 02:40:48;;;;;;;11.85;4.35;;;;;;;;;;4976865;28;20033;-96
2023/09/21 02:45:56;;;;;;;6.28;3.22;;;;;;;;;;5745022;23;20059;-96
2023/09/21 02:48:27;;;;;;;7.28;3.30;;;;;;;;;;4964951;29;20031;-96
2023/09/21 02:51:04;;;;;;;7.72;3.65;;;;;;;;;;4963624;29;20042;-96
2023/09/21 02:56:49;;;;;;;10.70;3.53;;;;;;;;;;4963388;29;20334;-96
2023/09/21 02:59:16;;;;;;;7.47;3.70;;;;;;;;;;4946098;29;20032;-94
2023/09/21 03:01:42;;;;;;;8.65;3.70;;;;;;;;;;4945535;29;20031;-93
2023/09/21 03:04:10;;;;;;;6.53;3.58;;;;;;;;;;4945397;29;20034;-94
2023/09/21 03:06:37;;;;;;;8.80;3.92;;;;;;;;;;4962595;29;20098;-95
2023/09/21 03:09:05;;;;;;;8.23;4.05;;;;;;;;;;4962504;29;20035;-94
2023/09/21 03:11:31;;;;;;;7.30;3.35;;;;;;;;;;4962358;29;20114;-93
2023/09/21 03:13:57;;;;;;;7.53;4.20;;;;;;;;;;4945306;29;20071;-94
2023/09/21 03:16:23;;;;;;;10.18;4.10;;;;;;;;;;4962214;29;20034;-93
2023/09/21 03:18:49;;;;;;;7.60;3.78;;;;;;;;;;4959174;28;20024;-94
2023/09/21 03:21:15;;;;;;;7.00;3.28;;;;;;;;;;4927152;29;20118;-93
2023/09/21 03:23:42;;;;;;;8.77;4.32;;;;;;;;;;4942155;29;20039;-93
2023/09/21 03:26:13;;;;;;;9.70;4.20;;;;;;;;;;4935742;29;20053;-95
2023/09/21 03:28:39;;;;;;;;;;;;;;;;;;4926358;29;20390;-95
2023/09/21 03:31:05;;;;;;;12.10;4.13;;;;;;;;;;4957853;29;19955;-94
2023/09/21 03:33:31;;;;;;;6.05;3.90;;;;;;;;;;4944953;29;20034;-94
2023/09/21 03:35:58;;;;;;;9.43;4.32;;;;;;;;;;4960502;29;20027;-94
2023/09/21 03:44:32;;;;;;;10.50;4.68;;;;;;;;;;4961890;29;20074;-94
2023/09/21 03:46:58;;;;;;;9.48;4.55;;;;;;;;;;4967839;28;20341;-94
2023/09/21 03:49:25;;;;;;;10.45;4.53;;;;;;;;;;4929506;29;20407;-94
2023/09/21 03:51:51;;;;;;;8.05;4.63;;;;;;;;;;4942652;29;20042;-95
2023/09/21 04:00:37;;;;;;;14.88;5.07;;;;;;;;;;4949821;29;20455;-93
2023/09/21 04:03:09;;;;;;;10.77;5.25;;;;;;;;;;4950703;29;20024;-94
2023/09/21 04:05:37;;;;;;;14.80;5.20;;;;;;;;;;4961327;29;20031;-96
2023/09/21 04:11:08;;;;;;;9.95;4.90;;;;;;;;;;4962258;29;20084;-93
2023/09/21 04:13:34;;;;;;;9.55;5.15;;;;;;;;;;4959091;29;20027;-95
2023/09/21 04:16:04;;;;;;;12.38;5.60;;;;;;;;;;4941960;29;20035;-95
2023/09/21 04:18:30;;;;;;;12.20;4.63;;;;;;;;;;4926934;29;20322;-95
2023/09/21 04:20:56;;;;;;;11.13;5.28;;;;;;;;;;4926051;29;20114;-96
2023/09/21 04:23:24;;;;;;;10.20;4.95;;;;;;;;;;4925842;29;20031;-94
2023/09/21 04:25:50;;;;;;;8.38;5.00;;;;;;;;;;4953235;29;20059;-96
2023/09/21 04:37:31;;;;;;;13.25;5.13;;;;;;;;;;668707;23;20310;-94
2023/09/21 04:43:16;;;;;;;8.38;4.90;;;;;;;;;;4932727;29;20063;-95
2023/09/21 04:45:42;;;;;;;11.68;4.85;;;;;;;;;;4908392;29;20028;-95
2023/09/21 04:48:08;;;;;;;10.40;4.70;;;;;;;;;;4922319;29;20032;-94
2023/09/21 04:50:34;;;;;;;9.88;4.97;;;;;;;;;;4912473;29;20055;-96
2023/09/21 04:56:09;;;;;;;10.02;4.60;;;;;;;;;;5536152;23;20039;-95
2023/09/21 05:01:11;;;;;;;9.20;4.75;;;;;;;;;;5143839;23;20093;-93
2023/09/21 05:03:37;;;;;;;10.45;5.00;;;;;;;;;;4903384;29;20029;-93
2023/09/21 05:06:04;;;;;;;9.38;5.35;;;;;;;;;;4886421;29;20036;-92
2023/09/21 05:08:35;;;;;;;18.13;5.10;;;;;;;;;;4903031;29;20438;-87
2023/09/21 05:11:02;;;;;;;9.15;5.20;;;;;;;;;;4902687;29;20032;-89
2023/09/21 05:13:28;;;;;;;11.30;4.70;;;;;;;;;;4903162;29;20029;-89
2023/09/21 05:15:54;;;;;;;17.40;5.30;;;;;;;;;;4886020;29;20084;-88
2023/09/21 05:18:20;;;;;;;15.88;4.63;;;;;;;;;;4903026;29;20025;-89
2023/09/21 05:20:47;;;;;;;23.55;5.72;;;;;;;;;;4902578;29;20032;-89
2023/09/21 05:23:14;;;;;;;12.30;4.43;;;;;;;;;;4902619;29;20033;-89
2023/09/21 05:25:40;;;;;;;15.52;5.10;;;;;;;;;;4902915;29;20069;-88
2023/09/21 05:28:07;;;;;;;21.05;6.03;;;;;;;;;;4886068;29;20028;-89
2023/09/21 05:30:33;;;;;;;20.58;4.97;;;;;;;;;;4885743;29;20045;-89
2023/09/21 05:33:01;;;;;;;15.73;4.95;;;;;;;;;;4902813;29;20057;-89
2023/09/21 05:35:27;;;;;;;10.02;4.63;;;;;;;;;;4902627;29;20028;-89
2023/09/21 05:37:54;;;;;;;15.82;5.00;;;;;;;;;;4901973;29;20487;-89
2023/09/21 05:40:21;;;;;;;13.13;4.75;;;;;;;;;;4885598;29;20042;-90
2023/09/21 05:42:47;;;;;;;10.88;4.47;;;;;;;;;;4885729;29;20029;-89
2023/09/21 05:45:13;;;;;;;16.85;4.32;;;;;;;;;;4885939;29;20447;-90
2023/09/21 05:47:39;;;;;;;9.70;4.18;;;;;;;;;;4901122;29;20044;-89
2023/09/21 05:50:07;;;;;;;12.70;4.85;;;;;;;;;;4885914;29;20072;-90
2023/09/21 05:52:35;;;;;;;10.82;4.10;;;;;;;;;;4875010;29;20021;-88
2023/09/21 05:55:01;;;;;;;13.45;4.43;;;;;;;;;;4883713;29;20025;-88
2023/09/21 05:57:28;;;;;;;9.65;4.10;;;;;;;;;;4883566;29;20100;-89
2023/09/21 05:59:54;;;;;;;13.00;4.32;;;;;;;;;;4883574;29;20436;-90
2023/09/21 06:02:22;;;;;;;11.00;4.03;;;;;;;;;;4852184;29;20057;-89
2023/09/21 06:04:48;;;;;;;7.00;3.78;;;;;;;;;;4883472;29;20037;-89
2023/09/21 06:07:14;;;;;;;10.88;4.05;;;;;;;;;;4883580;29;20029;-89
2023/09/21 06:09:43;;;;;;;6.95;4.10;;;;;;;;;;4866730;29;20034;-89
2023/09/21 06:12:10;;;;;;;7.07;3.67;;;;;;;;;;4867277;29;20362;-89
2023/09/21 06:14:36;;;;;;;13.55;4.30;;;;;;;;;;4861152;29;20032;-91
2023/09/21 06:17:05;;;;;;;9.93;3.83;;;;;;;;;;4864911;29;20305;-90
2023/09/21 06:19:32;;;;;;;8.40;3.65;;;;;;;;;;4848844;29;20112;-90
2023/09/21 06:21:58;;;;;;;6.13;3.30;;;;;;;;;;4864762;29;20425;-90
2023/09/21 06:24:25;;;;;;;6.85;3.35;;;;;;;;;;4864512;29;20420;-92
2023/09/21 06:26:54;;;;;;;6.30;3.38;;;;;;;;;;4848597;29;20316;-92
2023/09/21 06:29:22;;;;;;;8.50;4.20;;;;;;;;;;4874502;29;20093;-90
2023/09/21 06:31:48;;;;;;;13.13;4.10;;;;;;;;;;4873761;29;20416;-92
2023/09/21 06:34:21;;;;;;;7.88;3.50;;;;;;;;;;4866843;29;20040;-89
2023/09/21 06:36:47;;;;;;;6.95;3.88;;;;;;;;;;4862463;29;20108;-88
2023/09/21 06:39:14;;;;;;;8.57;3.67;;;;;;;;;;4861843;29;20157;-75
2023/09/21 06:41:40;;;;;;;6.30;3.50;;;;;;;;;;4882863;29;20032;-75
2023/09/21 06:44:06;;;;;;;7.78;4.13;;;;;;;;;;4877731;29;20029;-75
2023/09/21 06:46:32;;;;;;;8.55;3.47;;;;;;;;;;4867201;29;20051;-75
2023/09/21 06:49:01;;;;;;;7.18;3.75;;;;;;;;;;4876161;29;20033;-75
2023/09/21 06:51:27;;;;;;;10.82;3.75;;;;;;;;;;4882237;29;20062;-75
2023/09/21 06:53:53;;;;;;;6.57;3.80;;;;;;;;;;4884859;29;20025;-76
2023/09/21 06:56:21;;;;;;;6.68;3.38;;;;;;;;;;4886148;29;20031;-75
2023/09/21 06:58:47;;;;;;;5.43;3.40;;;;;;;;;;4886033;29;20035;-75
2023/09/21 07:01:13;;;;;;;7.53;4.15;;;;;;;;;;4885806;29;20059;-75
2023/09/21 07:03:40;;;;;;;6.85;3.60;;;;;;;;;;4885768;29;20056;-75
2023/09/21 07:06:06;;;;;;;4.57;3.25;;;;;;;;;;4885023;29;20025;-75
2023/09/21 07:08:32;;;;;;;6.00;3.42;;;;;;;;;;4885242;29;20033;-75
2023/09/21 07:10:58;;;;;;;8.55;3.70;;;;;;;;;;4885151;29;20033;-75
2023/09/21 07:13:24;;;;;;;8.90;3.72;;;;;;;;;;4885354;29;20461;-75
2023/09/21 07:15:52;;;;;;;9.80;3.70;;;;;;;;;;4868988;29;20028;-75
2023/09/21 07:18:18;;;;;;;5.95;3.83;;;;;;;;;;4868803;29;20033;-75
2023/09/21 07:20:44;;;;;;;9.98;4.68;;;;;;;;;;4884872;29;20197;-75
2023/09/21 07:23:10;;;;;;;5.75;3.40;;;;;;;;;;4868554;29;20074;-75
2023/09/21 07:25:37;;;;;;;5.40;3.83;;;;;;;;;;4875425;29;20033;-75
2023/09/21 07:28:03;;;;;;;7.70;3.72;;;;;;;;;;4868415;29;20037;-75
2023/09/21 07:30:32;;;;;;;10.48;4.03;;;;;;;;;;4881029;29;20358;-76
2023/09/21 07:32:59;;;;;;;9.90;4.40;;;;;;;;;;4866789;29;20037;-76
2023/09/21 07:35:26;;;;;;;10.73;4.65;;;;;;;;;;4865674;29;20033;-76
2023/09/21 07:37:52;;;;;;;10.63;3.88;;;;;;;;;;4866760;29;20036;-76
2023/09/21 07:40:19;;;;;;;8.15;4.30;;;;;;;;;;4865115;29;20033;-75
2023/09/21 07:42:45;;;;;;;8.68;4.07;;;;;;;;;;4865720;29;20480;-76
2023/09/21 07:45:11;;;;;;;16.67;4.65;;;;;;;;;;4866766;29;20029;-76
2023/09/21 07:47:38;;;;;;;11.75;4.43;;;;;;;;;;4865591;29;20040;-76
2023/09/21 07:50:07;;;;;;;7.03;3.47;;;;;;;;;;4866437;29;20131;-76
2023/09/21 07:52:34;;;;;;;10.32;4.35;;;;;;;;;;4866592;29;20056;-76
2023/09/21 07:55:02;;;;;;;8.48;4.07;;;;;;;;;;4866605;29;20026;-76
2023/09/21 07:57:31;;;;;;;5.63;3.75;;;;;;;;;;4867049;29;20033;-87
2023/09/21 07:59:57;;;;;;;9.43;4.10;;;;;;;;;;4865199;29;20045;-87
2023/09/21 08:02:23;;;;;;;10.50;4.40;;;;;;;;;;4867048;29;20078;-84
2023/09/21 08:04:49;;;;;;;12.27;4.13;;;;;;;;;;4865406;29;20116;-84
2023/09/21 08:07:23;;;;;;;8.75;4.00;;;;;;;;;;4866789;29;20068;-84
2023/09/21 08:09:49;;;;;;;7.53;3.63;;;;;;;;;;4865483;29;20106;-84
2023/09/21 08:12:15;;;;;;;6.65;3.80;;;;;;;;;;4866150;29;20032;-84
2023/09/21 08:14:41;;;;;;;12.73;4.45;;;;;;;;;;4865556;29;20030;-84
2023/09/21 08:17:08;;;;;;;8.85;4.18;;;;;;;;;;4865033;29;20029;-84
2023/09/21 08:19:35;;;;;;;9.15;4.03;;;;;;;;;;4864547;29;20394;-83
2023/09/21 08:22:01;;;;;;;7.60;3.85;;;;;;;;;;4866293;29;20030;-84
2023/09/21 08:24:28;;;;;;;7.65;4.22;;;;;;;;;;4866376;29;20026;-84
2023/09/21 08:26:54;;;;;;;9.85;3.90;;;;;;;;;;4865832;29;20021;-85
2023/09/21 08:29:21;;;;;;;8.85;4.55;;;;;;;;;;4866149;29;20101;-84
2023/09/21 08:31:48;;;;;;;6.75;4.80;;;;;;;;;;4865062;29;20051;-84
2023/09/21 08:34:14;;;;;;;13.10;4.50;;;;;;;;;;4866130;29;20040;-84
2023/09/21 08:36:40;;;;;;;8.48;4.75;;;;;;;;;;4868536;29;20077;-85
2023/09/21 08:39:07;;;;;;;9.43;5.00;;;;;;;;;;4867757;29;20033;-85
2023/09/21 08:41:35;;;;;;;9.65;4.80;;;;;;;;;;4883574;29;20029;-85
2023/09/21 08:44:04;;;;;;;10.50;4.72;;;;;;;;;;4880695;29;20106;-85
2023/09/21 08:46:31;;;;;;;10.48;4.65;;;;;;;;;;4883331;29;20052;-84
2023/09/21 08:48:59;;;;;;;8.10;5.22;;;;;;;;;;4883384;29;20033;-85
2023/09/21 08:51:26;;;;;;;8.45;5.15;;;;;;;;;;4882749;29;20434;-85
2023/09/21 08:53:54;;;;;;;11.32;5.55;;;;;;;;;;4866468;29;20455;-85
2023/09/21 08:56:20;;;;;;;11.63;5.70;;;;;;;;;;4866135;29;20041;-85
2023/09/21 08:58:48;;;;;;;10.23;5.05;;;;;;;;;;4883440;29;20029;-85
2023/09/21 09:01:14;;;;;;;15.55;5.57;;;;;;;;;;4866230;29;20277;-85
2023/09/21 09:03:40;;;;;;;9.65;5.32;;;;;;;;;;4884156;29;20340;-85
2023/09/21 09:06:06;;;;;;;12.70;5.10;;;;;;;;;;4867690;29;20328;-85
2023/09/21 09:08:33;;;;;;;11.05;5.80;;;;;;;;;;4866829;29;20045;-84
2023/09/21 09:10:59;;;;;;;10.45;4.88;;;;;;;;;;4884261;29;20037;-87
2023/09/21 09:13:35;;;;;;;9.25;5.53;;;;;;;;;;4867615;29;20124;-87
2023/09/21 09:16:01;;;;;;;11.63;5.30;;;;;;;;;;4867070;29;20066;-87
2023/09/21 09:18:30;;;;;;;8.13;5.03;;;;;;;;;;4883969;29;20045;-87
2023/09/21 09:20:56;;;;;;;14.05;5.28;;;;;;;;;;4867605;29;20059;-86
2023/09/21 09:23:22;;;;;;;9.32;5.22;;;;;;;;;;4867441;29;20036;-87
2023/09/21 09:25:49;;;;;;;12.77;5.80;;;;;;;;;;4884071;29;20037;-87
2023/09/21 09:28:18;;;;;;;11.80;5.70;;;;;;;;;;4884006;29;20040;-87
2023/09/21 09:30:45;;;;;;;9.25;5.25;;;;;;;;;;4884102;29;20033;-87
2023/09/21 09:33:15;;;;;;;13.45;5.50;;;;;;;;;;4883890;29;20037;-87
2023/09/21 09:35:41;;;;;;;14.13;6.07;;;;;;;;;;4867362;29;20044;-88
2023/09/21 09:38:11;;;;;;;10.07;5.35;;;;;;;;;;4866825;29;20033;-87
2023/09/21 09:40:38;;;;;;;9.63;5.68;;;;;;;;;;4868826;29;20033;-87
2023/09/21 09:43:07;;;;;;;13.60;5.00;;;;;;;;;;4883501;29;20093;-87
2023/09/21 09:45:37;;;;;;;6.32;5.22;;;;;;;;;;4883332;29;20044;-87
2023/09/21 09:48:09;;;;;;;9.07;5.67;;;;;;;;;;4883465;29;20029;-87
2023/09/21 09:50:36;;;;;;;15.32;6.03;;;;;;;;;;4883765;29;20108;-87
2023/09/21 09:53:03;;;;;;;12.85;6.13;;;;;;;;;;4866873;29;20033;-87
2023/09/21 09:55:33;;;;;;;9.90;5.88;;;;;;;;;;4883805;29;20032;-86
2023/09/21 09:58:08;;;;;;;11.02;5.60;;;;;;;;;;4883795;29;20029;-86
2023/09/21 10:00:35;;;;;;;17.58;5.43;;;;;;;;;;4866665;29;20049;-87
2023/09/21 10:03:03;;;;;;;14.55;5.40;;;;;;;;;;4883577;29;20041;-86
2023/09/21 10:05:30;;;;;;;15.30;5.68;;;;;;;;;;4883643;29;20029;-86
2023/09/21 10:07:59;;;;;;;9.93;5.78;;;;;;;;;;4878040;29;20040;-86
2023/09/21 10:10:27;;;;;;;11.18;5.55;;;;;;;;;;4882530;29;20029;-86
2023/09/21 10:12:53;;;;;;;12.77;6.18;;;;;;;;;;4883030;29;20057;-86
2023/09/21 10:15:22;;;;;;;14.20;4.93;;;;;;;;;;4866092;29;20048;-85
2023/09/21 10:17:50;;;;;;;10.20;5.00;;;;;;;;;;4866198;29;20044;-86
2023/09/21 10:20:27;;;;;;;12.38;5.28;;;;;;;;;;4883168;29;20100;-87
2023/09/21 10:22:53;;;;;;;13.35;5.75;;;;;;;;;;4866334;29;20045;-86
2023/09/21 10:28:39;;;;;;;9.65;4.63;;;;;;;;;;4887053;29;20081;-82
2023/09/21 10:31:09;;;;;;;13.48;5.18;;;;;;;;;;4886697;29;20451;-88
2023/09/21 10:33:50;;;;;;;10.90;5.30;;;;;;;;;;4887146;29;20320;-86
2023/09/21 10:36:23;;;;;;;11.05;5.28;;;;;;;;;;4870058;29;20037;-86
2023/09/21 10:39:10;;;;;;;10.18;5.00;;;;;;;;;;4886822;29;20040;-86
2023/09/21 10:41:42;;;;;;;14.50;5.22;;;;;;;;;;4870347;29;20029;-86
2023/09/21 10:44:09;;;;;;;10.35;4.75;;;;;;;;;;4870357;29;20305;-86
2023/09/21 10:46:35;;;;;;;14.43;4.90;;;;;;;;;;4886694;29;20042;-86
2023/09/21 10:49:04;;;;;;;13.40;4.85;;;;;;;;;;4886882;29;20025;-86
2023/09/21 10:51:31;;;;;;;14.38;4.78;;;;;;;;;;4870073;29;20029;-86
2023/09/21 10:53:58;;;;;;;15.38;4.90;;;;;;;;;;4870220;29;20029;-86
2023/09/21 10:56:26;;;;;;;14.13;4.95;;;;;;;;;;4869717;29;20037;-86
2023/09/21 10:58:52;;;;;;;15.15;4.80;;;;;;;;;;4886600;29;20029;-86
2023/09/21 11:01:19;;;;;;;12.65;4.53;;;;;;;;;;4886175;29;20098;-87
2023/09/21 11:03:48;;;;;;;12.77;4.30;;;;;;;;;;4886556;29;20393;-88
2023/09/21 11:06:16;;;;;;;10.20;5.05;;;;;;;;;;4869945;29;20033;-87
2023/09/21 11:08:42;;;;;;;13.82;5.30;;;;;;;;;;4870002;29;20112;-88
2023/09/21 11:11:08;;;;;;;15.10;5.50;;;;;;;;;;4869939;29;20073;-89
2023/09/21 11:13:34;;;;;;;12.15;5.68;;;;;;;;;;4886528;29;20025;-89
2023/09/21 11:16:01;;;;;;;14.20;5.07;;;;;;;;;;4869957;29;20029;-89
2023/09/21 11:18:29;;;;;;;15.30;5.55;;;;;;;;;;4886330;29;20021;-80
2023/09/21 11:20:56;;;;;;;14.63;5.75;;;;;;;;;;4884561;29;20044;-78
2023/09/21 11:23:22;;;;;;;11.35;4.63;;;;;;;;;;4885472;29;20037;-79
2023/09/21 11:25:50;;;;;;;11.85;4.57;;;;;;;;;;4885002;29;20033;-79
2023/09/21 11:28:16;;;;;;;12.82;4.70;;;;;;;;;;4885324;29;20052;-79
2023/09/21 11:30:43;;;;;;;14.02;4.80;;;;;;;;;;4868398;29;20436;-79
2023/09/21 11:33:10;;;;;;;11.02;4.20;;;;;;;;;;4867662;29;20298;-79
2023/09/21 11:35:37;;;;;;;11.63;4.32;;;;;;;;;;4885335;29;20060;-79
2023/09/21 11:38:03;;;;;;;13.55;4.93;;;;;;;;;;4880677;29;20097;-79
2023/09/21 11:40:31;;;;;;;14.35;4.25;;;;;;;;;;4862594;29;20036;-79
2023/09/21 11:42:59;;;;;;;16.30;4.65;;;;;;;;;;4866771;29;20029;-79
2023/09/21 11:45:26;;;;;;;12.57;4.60;;;;;;;;;;4878558;29;20355;-78
2023/09/21 11:47:57;;;;;;;11.15;4.35;;;;;;;;;;4884641;29;20155;-78
2023/09/21 11:50:31;;;;;;;11.15;4.88;;;;;;;;;;4866963;29;20483;-79
2023/09/21 11:52:58;;;;;;;13.55;5.18;;;;;;;;;;4885059;29;20028;-79
2023/09/21 11:55:24;;;;;;;18.33;4.90;;;;;;;;;;4884661;29;20024;-79
2023/09/21 11:57:51;;;;;;;12.50;4.70;;;;;;;;;;4885066;29;20029;-79
2023/09/21 12:00:27;;;;;;;15.13;4.50;;;;;;;;;;4868003;29;20045;-79
2023/09/21 12:02:56;;;;;;;15.45;4.20;;;;;;;;;;4883521;29;20025;-78
2023/09/21 12:05:23;;;;;;;11.43;4.20;;;;;;;;;;4884467;29;20041;-79
2023/09/21 12:07:49;;;;;;;14.45;4.68;;;;;;;;;;4884215;29;20039;-78
2023/09/21 12:10:16;;;;;;;14.32;4.57;;;;;;;;;;4870933;29;20316;-79
2023/09/21 12:12:42;;;;;;;16.23;4.47;;;;;;;;;;4883789;29;20036;-78
2023/09/21 12:15:12;;;;;;;13.35;4.70;;;;;;;;;;4881623;29;20060;-80
2023/09/21 12:17:38;;;;;;;11.82;4.10;;;;;;;;;;4884853;29;20029;-78
2023/09/21 12:20:16;;;;;;;13.40;4.30;;;;;;;;;;4883836;29;20040;-78
2023/09/21 12:22:42;;;;;;;13.85;4.18;;;;;;;;;;4867594;29;20036;-78
2023/09/21 12:25:08;;;;;;;12.80;4.10;;;;;;;;;;4883132;29;20052;-78
2023/09/21 12:27:35;;;;;;;16.92;4.75;;;;;;;;;;4867837;29;20124;-78
2023/09/21 12:30:01;;;;;;;14.35;4.30;;;;;;;;;;4883955;29;20041;-78
2023/09/21 12:32:28;;;;;;;12.52;3.90;;;;;;;;;;4867078;29;20151;-79
2023/09/21 12:34:54;;;;;;;17.90;4.15;;;;;;;;;;4884444;29;20070;-79
2023/09/21 12:37:21;;;;;;;13.82;3.90;;;;;;;;;;4867234;29;20028;-79
2023/09/21 12:39:47;;;;;;;11.35;4.07;;;;;;;;;;4867116;29;20029;-79
2023/09/21 12:42:16;;;;;;;12.73;4.15;;;;;;;;;;4866719;29;20037;-79
2023/09/21 12:44:42;;;;;;;13.05;4.25;;;;;;;;;;4884009;29;20430;-79
2023/09/21 12:47:09;;;;;;;10.63;4.43;;;;;;;;;;4865511;29;20438;-79
2023/09/21 12:49:39;;;;;;;10.02;4.97;;;;;;;;;;4880591;29;20077;-81
2023/09/21 12:52:05;;;;;;;12.18;4.85;;;;;;;;;;4870769;29;20036;-80
2023/09/21 12:54:31;;;;;;;11.88;5.03;;;;;;;;;;4867477;29;20079;-80
2023/09/21 12:56:57;;;;;;;18.05;5.63;;;;;;;;;;4851230;29;20097;-80
2023/09/21 12:59:23;;;;;;;15.07;5.07;;;;;;;;;;4883681;29;20033;-80
2023/09/21 13:01:52;;;;;;;12.00;4.93;;;;;;;;;;4882684;29;20068;-80
2023/09/21 13:04:18;;;;;;;13.90;5.22;;;;;;;;;;4865559;29;20041;-80
2023/09/21 13:06:44;;;;;;;13.98;5.00;;;;;;;;;;4883189;29;20139;-80
2023/09/21 13:09:11;;;;;;;15.05;5.18;;;;;;;;;;4879652;29;20029;-80
2023/09/21 13:11:37;;;;;;;14.52;6.25;;;;;;;;;;4848247;29;20033;-80
2023/09/21 13:14:03;;;;;;;14.23;6.15;;;;;;;;;;4865079;29;20045;-80
2023/09/21 13:16:30;;;;;;;17.60;6.13;;;;;;;;;;4864820;29;20025;-81
2023/09/21 13:18:56;;;;;;;14.50;5.60;;;;;;;;;;4865117;29;20032;-80
2023/09/21 13:21:22;;;;;;;19.63;5.72;;;;;;;;;;4861648;29;20045;-81
2023/09/21 13:23:48;;;;;;;13.57;5.10;;;;;;;;;;4882820;29;20044;-81
2023/09/21 13:26:14;;;;;;;16.73;5.85;;;;;;;;;;4862597;29;20097;-80
2023/09/21 13:28:41;;;;;;;17.48;5.72;;;;;;;;;;4866486;29;20036;-90
2023/09/21 13:31:09;;;;;;;12.57;5.25;;;;;;;;;;4882926;29;20412;-80
2023/09/21 13:33:36;;;;;;;12.38;5.72;;;;;;;;;;4866317;29;20029;-81
2023/09/21 13:36:03;;;;;;;19.63;5.80;;;;;;;;;;4865123;29;20068;-80
2023/09/21 13:38:30;;;;;;;15.55;5.85;;;;;;;;;;4883115;29;20045;-80
2023/09/21 13:40:59;;;;;;;12.68;5.43;;;;;;;;;;4882336;29;20377;-81
2023/09/21 13:43:25;;;;;;;18.90;4.95;;;;;;;;;;4883111;29;20044;-82
2023/09/21 13:45:52;;;;;;;12.43;4.57;;;;;;;;;;4882852;29;20081;-80
2023/09/21 13:48:22;;;;;;;15.00;4.63;;;;;;;;;;4864998;29;20097;-88
2023/09/21 13:50:50;;;;;;;13.43;5.47;;;;;;;;;;4887059;29;20049;-96
2023/09/21 13:53:18;;;;;;;10.80;4.72;;;;;;;;;;4886959;29;20021;-94
2023/09/21 13:55:46;;;;;;;12.27;4.72;;;;;;;;;;4870589;29;20032;-95
2023/09/21 13:58:14;;;;;;;13.50;4.68;;;;;;;;;;4886841;29;20025;-94
2023/09/21 14:00:40;;;;;;;17.52;5.30;;;;;;;;;;4884137;29;20057;-94
2023/09/21 14:03:07;;;;;;;16.40;4.53;;;;;;;;;;4868472;29;20037;-94
2023/09/21 14:05:33;;;;;;;13.73;5.03;;;;;;;;;;4868569;29;20060;-95
2023/09/21 14:08:00;;;;;;;11.90;4.60;;;;;;;;;;4868397;29;20041;-94
2023/09/21 14:10:30;;;;;;;9.45;4.30;;;;;;;;;;4867971;29;20029;-92
2023/09/21 14:12:56;;;;;;;16.95;4.95;;;;;;;;;;4885017;29;20029;-92
2023/09/21 14:15:23;;;;;;;27.77;5.78;;;;;;;;;;4884690;29;20396;-92
2023/09/21 14:17:49;;;;;;;15.82;4.90;;;;;;;;;;4884531;29;20045;-92
2023/09/21 14:20:15;;;;;;;17.13;4.95;;;;;;;;;;4867954;29;20116;-90
2023/09/21 14:22:41;;;;;;;16.85;4.50;;;;;;;;;;4866910;29;20035;-94
2023/09/21 14:25:35;;;;;;;14.07;4.78;;;;;;;;;;4883813;29;20316;-92
2023/09/21 14:28:01;;;;;;;12.52;5.18;;;;;;;;;;4866269;29;20041;-91
2023/09/21 14:30:27;;;;;;;12.05;4.70;;;;;;;;;;4867080;29;20412;-94
2023/09/21 14:32:54;;;;;;;16.00;5.00;;;;;;;;;;4883660;29;20077;-93
2023/09/21 14:35:20;;;;;;;16.77;5.35;;;;;;;;;;4866799;29;20052;-94
2023/09/21 14:37:46;;;;;;;15.50;5.15;;;;;;;;;;4867005;29;20074;-93
2023/09/21 14:40:12;;;;;;;17.85;5.57;;;;;;;;;;4866875;29;20063;-95
2023/09/21 14:42:38;;;;;;;15.57;5.05;;;;;;;;;;4867033;29;20444;-94
2023/09/21 14:45:05;;;;;;;12.10;4.97;;;;;;;;;;4883112;29;20128;-94
2023/09/21 14:47:33;;;;;;;14.15;5.28;;;;;;;;;;4865651;29;20033;-79
2023/09/21 14:50:00;;;;;;;13.75;5.20;;;;;;;;;;4881634;29;20342;-78
2023/09/21 14:52:26;;;;;;;10.98;4.40;;;;;;;;;;4882551;29;20033;-79
2023/09/21 14:54:53;;;;;;;17.25;4.80;;;;;;;;;;4882377;29;20112;-79
2023/09/21 14:57:19;;;;;;;15.18;5.03;;;;;;;;;;4865532;29;20029;-79
2023/09/21 14:59:45;;;;;;;18.13;6.15;;;;;;;;;;4882611;29;20061;-79
2023/09/21 15:02:11;;;;;;;14.15;5.15;;;;;;;;;;4882399;29;20333;-79
2023/09/21 15:04:39;;;;;;;17.13;4.78;;;;;;;;;;4882579;29;20025;-79
2023/09/21 15:07:05;;;;;;;12.85;5.10;;;;;;;;;;4882578;29;20081;-79
2023/09/21 15:09:32;;;;;;;13.75;4.85;;;;;;;;;;4865233;29;20037;-79
2023/09/21 15:11:58;;;;;;;15.40;5.05;;;;;;;;;;4882518;29;20120;-78
2023/09/21 15:14:24;;;;;;;12.82;5.25;;;;;;;;;;4866783;29;20335;-79
2023/09/21 15:19:29;;;;;;;13.27;4.90;;;;;;;;;;5096436;23;20090;-96
2023/09/21 15:22:11;;;;;;;14.10;5.13;;;;;;;;;;5008176;23;20431;-96
2023/09/21 15:24:38;;;;;;;16.08;5.47;;;;;;;;;;4926399;29;20056;-96
2023/09/21 15:27:04;;;;;;;15.70;4.75;;;;;;;;;;4925015;29;20032;-95
2023/09/21 15:29:30;;;;;;;14.93;5.72;;;;;;;;;;4907262;29;20063;-94